sensor_id;sensor_type;location;lat;lon;timestamp;pressure;altitude;pressure_sealevel;temperature;humidity
39443;BME280;25147;52.142;9.960;2023-04-20T00:00:27;101010.06;;;3.98;97.91
39443;BME280;25147;52.142;9.960;2023-04-20T00:02:54;100903.50;;;3.37;98.13
39443;BME280;25147;52.142;9.960;2023-04-20T00:05:21;101133.78;;;4.51;98.66
39443;BME280;25147;52.142;9.960;2023-04-20T00:07:48;101098.31;;;4.49;98.92
39443;BME280;25147;52.142;9.960;2023-04-20T00:10:15;100781.19;;;2.61;99.14
39443;BME280;25147;52.142;9.960;2023-04-20T00:12:43;100680.22;;;2.12;99.13
39443;BME280;25147;52.142;9.960;2023-04-20T00:15:10;100977.03;;;3.88;99.76
39443;BME280;25147;52.142;9.960;2023-04-20T00:17:37;100738.63;;;2.45;100.00
39443;BME280;25147;52.142;9.960;2023-04-20T00:20:05;100915.78;;;3.46;100.00
39443;BME280;25147;52.142;9.960;2023-04-20T00:22:32;100887.19;;;3.40;100.00
39443;BME280;25147;52.142;9.960;2023-04-20T00:25:00;100945.63;;;3.71;100.00
39443;BME280;25147;52.142;9.960;2023-04-20T00:27:27;101074.03;;;4.45;100.00
39443;BME280;25147;52.142;9.960;2023-04-20T00:29:54;101075.75;;;4.45;100.00
39443;BME280;25147;52.142;9.960;2023-04-20T00:32:21;101129.25;;;4.41;100.00
39443;BME280;25147;52.142;9.960;2023-04-20T00:34:48;101086.91;;;4.40;100.00
39443;BME280;25147;52.142;9.960;2023-04-20T00:37:15;101014.53;;;4.06;100.00
39443;BME280;25147;52.142;9.960;2023-04-20T00:39:41;101070.38;;;4.35;100.00
39443;BME280;25147;52.142;9.960;2023-04-20T00:42:08;100999.53;;;3.89;100.00
39443;BME280;25147;52.142;9.960;2023-04-20T00:44:35;100993.28;;;3.79;100.00
39443;BME280;25147;52.142;9.960;2023-04-20T00:47:03;100912.88;;;3.31;100.00
39443;BME280;25147;52.142;9.960;2023-04-20T00:49:30;101077.94;;;4.25;100.00
39443;BME280;25147;52.142;9.960;2023-04-20T00:51:57;100632.84;;;1.72;100.00
39443;BME280;25147;52.142;9.960;2023-04-20T00:54:25;100698.22;;;2.08;100.00
39443;BME280;25147;52.142;9.960;2023-04-20T00:56:53;100793.19;;;2.57;100.00
39443;BME280;25147;52.142;9.960;2023-04-20T00:59:20;101055.44;;;4.22;100.00
39443;BME280;25147;52.142;9.960;2023-04-20T01:01:47;100998.69;;;3.92;100.00
39443;BME280;25147;52.142;9.960;2023-04-20T01:04:16;100779.91;;;2.42;100.00
39443;BME280;25147;52.142;9.960;2023-04-20T01:06:43;101073.56;;;4.20;100.00
39443;BME280;25147;52.142;9.960;2023-04-20T01:09:09;101032.94;;;4.19;100.00
39443;BME280;25147;52.142;9.960;2023-04-20T01:11:37;100943.88;;;3.69;100.00
39443;BME280;25147;52.142;9.960;2023-04-20T01:14:04;100958.66;;;3.76;100.00
39443;BME280;25147;52.142;9.960;2023-04-20T01:16:31;100685.56;;;2.21;100.00
39443;BME280;25147;52.142;9.960;2023-04-20T01:18:59;100842.53;;;3.08;100.00
39443;BME280;25147;52.142;9.960;2023-04-20T01:21:27;100803.44;;;2.94;100.00
39443;BME280;25147;52.142;9.960;2023-04-20T01:23:55;100684.75;;;2.23;100.00
39443;BME280;25147;52.142;9.960;2023-04-20T01:26:23;100978.19;;;4.01;100.00
39443;BME280;25147;52.142;9.960;2023-04-20T01:28:50;100831.38;;;3.10;100.00
39443;BME280;25147;52.142;9.960;2023-04-20T01:31:17;101007.03;;;4.21;100.00
39443;BME280;25147;52.142;9.960;2023-04-20T01:33:43;101003.66;;;4.24;100.00
39443;BME280;25147;52.142;9.960;2023-04-20T01:36:10;100555.53;;;1.39;100.00
39443;BME280;25147;52.142;9.960;2023-04-20T01:38:37;101014.03;;;4.25;100.00
39443;BME280;25147;52.142;9.960;2023-04-20T01:41:08;101001.16;;;4.28;100.00
39443;BME280;25147;52.142;9.960;2023-04-20T01:43:35;100899.97;;;3.76;100.00
39443;BME280;25147;52.142;9.960;2023-04-20T01:46:03;100919.16;;;3.86;100.00
39443;BME280;25147;52.142;9.960;2023-04-20T01:48:30;100981.34;;;4.32;100.00
39443;BME280;25147;52.142;9.960;2023-04-20T01:50:57;100732.56;;;2.84;100.00
39443;BME280;25147;52.142;9.960;2023-04-20T01:53:23;100520.66;;;1.55;100.00
39443;BME280;25147;52.142;9.960;2023-04-20T01:55:50;100974.47;;;4.34;100.00
39443;BME280;25147;52.142;9.960;2023-04-20T01:58:19;100976.19;;;4.35;100.00
39443;BME280;25147;52.142;9.960;2023-04-20T02:00:45;100996.09;;;4.36;100.00
39443;BME280;25147;52.142;9.960;2023-04-20T02:03:12;100973.66;;;4.36;100.00
39443;BME280;25147;52.142;9.960;2023-04-20T02:05:39;100965.00;;;4.36;100.00
39443;BME280;25147;52.142;9.960;2023-04-20T02:08:06;100969.31;;;4.37;100.00
39443;BME280;25147;52.142;9.960;2023-04-20T02:10:32;101001.34;;;4.39;100.00
39443;BME280;25147;52.142;9.960;2023-04-20T02:12:59;100765.09;;;3.17;100.00
39443;BME280;25147;52.142;9.960;2023-04-20T02:15:27;100811.25;;;3.38;100.00
39443;BME280;25147;52.142;9.960;2023-04-20T02:17:55;100672.78;;;2.67;100.00
39443;BME280;25147;52.142;9.960;2023-04-20T02:20:22;100888.16;;;3.89;100.00
39443;BME280;25147;52.142;9.960;2023-04-20T02:22:49;100885.56;;;3.91;100.00
39443;BME280;25147;52.142;9.960;2023-04-20T02:25:16;100656.00;;;2.48;100.00
39443;BME280;25147;52.142;9.960;2023-04-20T02:27:43;100662.47;;;2.70;100.00
39443;BME280;25147;52.142;9.960;2023-04-20T02:30:10;100811.88;;;3.28;100.00
39443;BME280;25147;52.142;9.960;2023-04-20T02:32:38;100881.22;;;3.88;100.00
39443;BME280;25147;52.142;9.960;2023-04-20T02:35:05;100570.13;;;2.16;100.00
39443;BME280;25147;52.142;9.960;2023-04-20T02:37:33;100756.75;;;3.30;100.00
39443;BME280;25147;52.142;9.960;2023-04-20T02:40:00;100773.31;;;3.40;100.00
39443;BME280;25147;52.142;9.960;2023-04-20T02:42:26;100966.09;;;4.49;100.00
39443;BME280;25147;52.142;9.960;2023-04-20T02:44:53;100723.66;;;3.15;100.00
39443;BME280;25147;52.142;9.960;2023-04-20T02:47:20;100952.28;;;4.51;100.00
39443;BME280;25147;52.142;9.960;2023-04-20T02:49:48;100946.84;;;4.37;100.00
39443;BME280;25147;52.142;9.960;2023-04-20T02:52:15;100984.31;;;4.53;100.00
39443;BME280;25147;52.142;9.960;2023-04-20T02:54:42;100908.69;;;4.29;100.00
39443;BME280;25147;52.142;9.960;2023-04-20T02:57:08;100965.97;;;4.42;100.00
39443;BME280;25147;52.142;9.960;2023-04-20T02:59:36;100408.53;;;1.39;100.00
39443;BME280;25147;52.142;9.960;2023-04-20T03:02:02;100948.91;;;4.55;100.00
39443;BME280;25147;52.142;9.960;2023-04-20T03:04:29;100906.91;;;4.25;100.00
39443;BME280;25147;52.142;9.960;2023-04-20T03:06:57;100954.94;;;4.56;100.00
39443;BME280;25147;52.142;9.960;2023-04-20T03:09:24;100913.84;;;4.26;100.00
39443;BME280;25147;52.142;9.960;2023-04-20T03:11:51;100946.34;;;4.57;100.00
39443;BME280;25147;52.142;9.960;2023-04-20T03:14:18;100815.41;;;3.77;100.00
39443;BME280;25147;52.142;9.960;2023-04-20T03:16:45;100948.06;;;4.56;100.00
39443;BME280;25147;52.142;9.960;2023-04-20T03:19:12;100872.00;;;4.04;100.00
39443;BME280;25147;52.142;9.960;2023-04-20T03:21:39;100882.44;;;4.09;100.00
39443;BME280;25147;52.142;9.960;2023-04-20T03:24:07;100689.78;;;3.00;100.00
39443;BME280;25147;52.142;9.960;2023-04-20T03:26:34;100861.34;;;3.89;100.00
39443;BME280;25147;52.142;9.960;2023-04-20T03:29:02;100792.34;;;3.44;100.00
39443;BME280;25147;52.142;9.960;2023-04-20T03:31:29;100942.88;;;4.56;100.00
39443;BME280;25147;52.142;9.960;2023-04-20T03:33:55;100960.16;;;4.57;100.00
39443;BME280;25147;52.142;9.960;2023-04-20T03:36:22;100904.03;;;4.08;100.00
39443;BME280;25147;52.142;9.960;2023-04-20T03:38:49;100766.63;;;3.51;100.00
39443;BME280;25147;52.142;9.960;2023-04-20T03:41:17;100453.56;;;1.56;100.00
39443;BME280;25147;52.142;9.960;2023-04-20T03:43:44;100628.75;;;2.64;100.00
39443;BME280;25147;52.142;9.960;2023-04-20T03:46:10;100968.84;;;4.59;100.00
39443;BME280;25147;52.142;9.960;2023-04-20T03:48:37;100808.09;;;3.54;100.00
39443;BME280;25147;52.142;9.960;2023-04-20T03:51:04;100964.56;;;4.61;100.00
39443;BME280;25147;52.142;9.960;2023-04-20T03:53:31;100979.28;;;4.62;100.00
39443;BME280;25147;52.142;9.960;2023-04-20T03:55:58;100670.69;;;2.95;100.00
39443;BME280;25147;52.142;9.960;2023-04-20T03:58:26;100921.97;;;4.47;100.00
39443;BME280;25147;52.142;9.960;2023-04-20T04:01:00;100777.59;;;3.38;100.00
39443;BME280;25147;52.142;9.960;2023-04-20T04:03:27;100662.13;;;2.96;100.00
39443;BME280;25147;52.142;9.960;2023-04-20T04:05:53;100750.88;;;3.39;100.00
39443;BME280;25147;52.142;9.960;2023-04-20T04:08:20;100901.09;;;4.38;100.00
39443;BME280;25147;52.142;9.960;2023-04-20T04:10:47;100967.31;;;4.71;100.00
39443;BME280;25147;52.142;9.960;2023-04-20T04:13:13;101011.44;;;4.72;100.00
39443;BME280;25147;52.142;9.960;2023-04-20T04:15:42;100792.09;;;3.78;100.00
39443;BME280;25147;52.142;9.960;2023-04-20T04:18:08;100988.09;;;4.74;100.00
39443;BME280;25147;52.142;9.960;2023-04-20T04:20:35;100946.41;;;4.60;100.00
39443;BME280;25147;52.142;9.960;2023-04-20T04:23:02;100951.78;;;4.74;100.00
39443;BME280;25147;52.142;9.960;2023-04-20T04:25:29;100672.59;;;3.04;100.00
39443;BME280;25147;52.142;9.960;2023-04-20T04:27:55;100529.69;;;2.18;100.00
39443;BME280;25147;52.142;9.960;2023-04-20T04:30:23;100854.06;;;4.16;100.00
39443;BME280;25147;52.142;9.960;2023-04-20T04:32:51;100875.53;;;4.08;100.00
39443;BME280;25147;52.142;9.960;2023-04-20T04:35:18;100691.63;;;3.06;100.00
39443;BME280;25147;52.142;9.960;2023-04-20T04:37:45;100875.00;;;4.29;100.00
39443;BME280;25147;52.142;9.960;2023-04-20T04:40:12;100951.88;;;4.77;100.00
39443;BME280;25147;52.142;9.960;2023-04-20T04:42:39;100869.69;;;4.21;100.00
39443;BME280;25147;52.142;9.960;2023-04-20T04:45:07;100959.69;;;4.80;100.00
39443;BME280;25147;52.142;9.960;2023-04-20T04:47:35;100955.38;;;4.82;100.00
39443;BME280;25147;52.142;9.960;2023-04-20T04:50:04;100657.25;;;3.13;100.00
39443;BME280;25147;52.142;9.960;2023-04-20T04:52:31;100762.72;;;3.76;100.00
39443;BME280;25147;52.142;9.960;2023-04-20T04:54:58;100948.59;;;4.89;100.00
39443;BME280;25147;52.142;9.960;2023-04-20T04:57:25;100966.75;;;4.89;100.00
39443;BME280;25147;52.142;9.960;2023-04-20T04:59:52;100951.19;;;4.89;100.00
39443;BME280;25147;52.142;9.960;2023-04-20T05:02:19;100935.41;;;4.75;100.00
39443;BME280;25147;52.142;9.960;2023-04-20T05:04:45;100949.50;;;4.91;100.00
39443;BME280;25147;52.142;9.960;2023-04-20T05:07:14;100848.88;;;4.16;100.00
39443;BME280;25147;52.142;9.960;2023-04-20T05:09:41;100988.44;;;4.94;100.00
39443;BME280;25147;52.142;9.960;2023-04-20T05:12:08;100780.19;;;3.88;100.00
39443;BME280;25147;52.142;9.960;2023-04-20T05:14:35;100632.03;;;3.01;100.00
39443;BME280;25147;52.142;9.960;2023-04-20T05:17:03;100955.13;;;4.65;100.00
39443;BME280;25147;52.142;9.960;2023-04-20T05:19:30;100896.19;;;4.55;100.00
39443;BME280;25147;52.142;9.960;2023-04-20T05:21:56;100808.03;;;4.00;100.00
39443;BME280;25147;52.142;9.960;2023-04-20T05:24:25;100964.34;;;5.01;100.00
39443;BME280;25147;52.142;9.960;2023-04-20T05:26:51;100783.66;;;3.89;100.00
39443;BME280;25147;52.142;9.960;2023-04-20T05:29:21;100807.31;;;4.09;100.00
39443;BME280;25147;52.142;9.960;2023-04-20T05:31:48;100434.38;;;1.85;100.00
39443;BME280;25147;52.142;9.960;2023-04-20T05:34:17;100450.72;;;1.84;100.00
39443;BME280;25147;52.142;9.960;2023-04-20T05:36:45;100650.34;;;3.13;100.00
39443;BME280;25147;52.142;9.960;2023-04-20T05:39:12;101004.13;;;5.01;100.00
39443;BME280;25147;52.142;9.960;2023-04-20T05:41:40;100660.88;;;3.22;100.00
39443;BME280;25147;52.142;9.960;2023-04-20T05:44:07;100614.56;;;2.88;100.00
39443;BME280;25147;52.142;9.960;2023-04-20T05:46:34;100982.63;;;5.10;100.00
39443;BME280;25147;52.142;9.960;2023-04-20T05:49:01;100521.41;;;2.34;100.00
39443;BME280;25147;52.142;9.960;2023-04-20T05:51:27;100829.94;;;4.17;100.00
39443;BME280;25147;52.142;9.960;2023-04-20T05:53:58;100963.19;;;4.83;100.00
39443;BME280;25147;52.142;9.960;2023-04-20T05:56:26;100848.25;;;4.30;100.00
39443;BME280;25147;52.142;9.960;2023-04-20T05:58:55;101019.84;;;5.11;100.00
39443;BME280;25147;52.142;9.960;2023-04-20T06:01:21;100822.06;;;4.13;100.00
39443;BME280;25147;52.142;9.960;2023-04-20T06:03:48;100964.31;;;4.99;100.00
39443;BME280;25147;52.142;9.960;2023-04-20T06:06:15;101009.59;;;5.18;100.00
39443;BME280;25147;52.142;9.960;2023-04-20T06:08:42;100916.19;;;4.63;100.00
39443;BME280;25147;52.142;9.960;2023-04-20T06:11:09;100917.09;;;4.66;100.00
39443;BME280;25147;52.142;9.960;2023-04-20T06:13:35;100931.81;;;4.67;100.00
39443;BME280;25147;52.142;9.960;2023-04-20T06:16:04;100988.81;;;5.18;100.00
39443;BME280;25147;52.142;9.960;2023-04-20T06:18:34;100849.81;;;4.20;100.00
39443;BME280;25147;52.142;9.960;2023-04-20T06:21:01;101018.44;;;5.33;100.00
39443;BME280;25147;52.142;9.960;2023-04-20T06:23:28;101001.25;;;5.39;100.00
39443;BME280;25147;52.142;9.960;2023-04-20T06:25:55;100999.66;;;5.51;100.00
39443;BME280;25147;52.142;9.960;2023-04-20T06:28:21;100993.72;;;5.59;100.00
39443;BME280;25147;52.142;9.960;2023-04-20T06:30:48;100994.63;;;5.60;100.00
39443;BME280;25147;52.142;9.960;2023-04-20T06:33:16;100823.75;;;4.67;100.00
39443;BME280;25147;52.142;9.960;2023-04-20T06:35:43;101044.97;;;5.71;100.00
39443;BME280;25147;52.142;9.960;2023-04-20T06:38:10;100921.22;;;5.11;100.00
39443;BME280;25147;52.142;9.960;2023-04-20T06:40:36;100909.06;;;5.05;100.00
39443;BME280;25147;52.142;9.960;2023-04-20T06:43:03;101002.53;;;5.71;100.00
39443;BME280;25147;52.142;9.960;2023-04-20T06:45:30;100939.00;;;5.44;100.00
39443;BME280;25147;52.142;9.960;2023-04-20T06:47:57;101000.13;;;5.85;100.00
39443;BME280;25147;52.142;9.960;2023-04-20T06:50:25;101014.94;;;5.93;100.00
39443;BME280;25147;52.142;9.960;2023-04-20T06:52:52;100873.94;;;5.32;100.00
39443;BME280;25147;52.142;9.960;2023-04-20T06:55:19;100740.59;;;4.53;100.00
39443;BME280;25147;52.142;9.960;2023-04-20T06:57:45;100996.16;;;6.14;98.74
39443;BME280;25147;52.142;9.960;2023-04-20T07:00:13;100777.09;;;4.69;97.37
39443;BME280;25147;52.142;9.960;2023-04-20T07:02:44;101020.56;;;6.26;97.17
39443;BME280;25147;52.142;9.960;2023-04-20T07:05:11;100999.81;;;6.30;95.60
39443;BME280;25147;52.142;9.960;2023-04-20T07:07:40;100906.56;;;5.86;95.51
39443;BME280;25147;52.142;9.960;2023-04-20T07:10:08;100995.59;;;6.43;95.18
39443;BME280;25147;52.142;9.960;2023-04-20T07:12:36;100690.69;;;4.71;94.30
39443;BME280;25147;52.142;9.960;2023-04-20T07:15:05;101012.19;;;6.54;94.19
39443;BME280;25147;52.142;9.960;2023-04-20T07:17:32;100864.03;;;5.75;93.92
39443;BME280;25147;52.142;9.960;2023-04-20T07:19:59;101019.19;;;6.60;93.72
39443;BME280;25147;52.142;9.960;2023-04-20T07:22:31;101007.94;;;6.62;93.65
39443;BME280;25147;52.142;9.960;2023-04-20T07:25:00;101003.63;;;6.66;92.97
39443;BME280;25147;52.142;9.960;2023-04-20T07:27:27;100679.53;;;4.77;92.42
39443;BME280;25147;52.142;9.960;2023-04-20T07:29:55;100988.88;;;6.63;93.44
39443;BME280;25147;52.142;9.960;2023-04-20T07:32:22;100983.84;;;6.82;93.28
39443;BME280;25147;52.142;9.960;2023-04-20T07:34:49;100840.13;;;6.05;92.18
39443;BME280;25147;52.142;9.960;2023-04-20T07:37:16;100945.59;;;6.72;91.97
39443;BME280;25147;52.142;9.960;2023-04-20T07:39:43;100950.84;;;6.78;91.58
39443;BME280;25147;52.142;9.960;2023-04-20T07:42:11;100910.84;;;6.67;91.20
39443;BME280;25147;52.142;9.960;2023-04-20T07:44:38;100776.56;;;5.75;89.67
39443;BME280;25147;52.142;9.960;2023-04-20T07:47:04;100749.75;;;5.78;88.10
39443;BME280;25147;52.142;9.960;2023-04-20T07:49:35;100942.97;;;6.72;87.85
39443;BME280;25147;52.142;9.960;2023-04-20T07:52:01;100909.88;;;6.54;87.62
39443;BME280;25147;52.142;9.960;2023-04-20T07:54:28;100865.41;;;6.26;87.27
39443;BME280;25147;52.142;9.960;2023-04-20T07:56:56;101038.84;;;7.27;86.99
39443;BME280;25147;52.142;9.960;2023-04-20T07:59:24;100979.69;;;7.07;87.42
39443;BME280;25147;52.142;9.960;2023-04-20T08:01:51;101015.41;;;7.30;86.51
39443;BME280;25147;52.142;9.960;2023-04-20T08:04:21;100967.50;;;7.03;86.07
39443;BME280;25147;52.142;9.960;2023-04-20T08:06:47;100694.06;;;5.47;85.67
39443;BME280;25147;52.142;9.960;2023-04-20T08:09:14;101025.06;;;7.43;85.72
39443;BME280;25147;52.142;9.960;2023-04-20T08:11:41;101020.75;;;7.48;85.29
39443;BME280;25147;52.142;9.960;2023-04-20T08:14:10;100683.84;;;5.62;84.82
39443;BME280;25147;52.142;9.960;2023-04-20T08:16:38;100918.91;;;7.00;84.69
39443;BME280;25147;52.142;9.960;2023-04-20T08:19:05;101007.75;;;7.54;84.75
39443;BME280;25147;52.142;9.960;2023-04-20T08:21:34;100933.66;;;7.06;84.35
39443;BME280;25147;52.142;9.960;2023-04-20T08:24:01;101010.34;;;7.50;84.98
39443;BME280;25147;52.142;9.960;2023-04-20T08:26:28;101013.78;;;7.49;83.68
39443;BME280;25147;52.142;9.960;2023-04-20T08:28:55;100870.00;;;6.56;83.19
39443;BME280;25147;52.142;9.960;2023-04-20T08:31:21;100727.97;;;5.63;82.84
39443;BME280;25147;52.142;9.960;2023-04-20T08:33:50;100923.97;;;6.83;83.00
39443;BME280;25147;52.142;9.960;2023-04-20T08:36:16;100726.09;;;5.46;83.63
39443;BME280;25147;52.142;9.960;2023-04-20T08:38:44;100778.44;;;5.92;83.26
39443;BME280;25147;52.142;9.960;2023-04-20T08:41:10;100928.28;;;6.80;83.23
39443;BME280;25147;52.142;9.960;2023-04-20T08:43:39;100858.47;;;6.22;82.80
39443;BME280;25147;52.142;9.960;2023-04-20T08:46:06;101048.50;;;7.46;82.52
39443;BME280;25147;52.142;9.960;2023-04-20T08:48:34;100765.47;;;5.92;81.29
39443;BME280;25147;52.142;9.960;2023-04-20T08:51:04;100852.66;;;6.57;79.59
39443;BME280;25147;52.142;9.960;2023-04-20T08:53:31;100831.78;;;6.46;80.05
39443;BME280;25147;52.142;9.960;2023-04-20T08:55:58;100756.09;;;6.08;79.33
39443;BME280;25147;52.142;9.960;2023-04-20T08:58:29;100986.03;;;7.54;79.57
39443;BME280;25147;52.142;9.960;2023-04-20T09:00:56;101037.53;;;7.98;79.47
39443;BME280;25147;52.142;9.960;2023-04-20T09:03:32;101064.53;;;8.15;79.09
39443;BME280;25147;52.142;9.960;2023-04-20T09:05:59;101036.78;;;8.33;78.14
39443;BME280;25147;52.142;9.960;2023-04-20T09:08:35;101033.38;;;8.48;77.54
39443;BME280;25147;52.142;9.960;2023-04-20T09:11:02;100938.44;;;7.92;76.67
39443;BME280;25147;52.142;9.960;2023-04-20T09:13:28;100879.25;;;7.60;75.51
39443;BME280;25147;52.142;9.960;2023-04-20T09:15:55;100952.38;;;8.20;75.98
39443;BME280;25147;52.142;9.960;2023-04-20T09:18:22;100999.44;;;8.49;76.03
39443;BME280;25147;52.142;9.960;2023-04-20T09:20:49;100910.66;;;8.06;75.48
39443;BME280;25147;52.142;9.960;2023-04-20T09:23:17;100867.13;;;7.85;75.59
39443;BME280;25147;52.142;9.960;2023-04-20T09:25:49;101036.91;;;8.93;75.22
39443;BME280;25147;52.142;9.960;2023-04-20T09:28:17;101044.75;;;8.96;75.23
39443;BME280;25147;52.142;9.960;2023-04-20T09:30:46;101037.78;;;8.90;74.34
39443;BME280;25147;52.142;9.960;2023-04-20T09:33:13;100819.31;;;7.55;71.90
39443;BME280;25147;52.142;9.960;2023-04-20T09:35:41;100988.13;;;8.50;70.92
39443;BME280;25147;52.142;9.960;2023-04-20T09:38:09;100987.25;;;8.53;70.27
39443;BME280;25147;52.142;9.960;2023-04-20T09:40:36;100984.59;;;8.25;70.05
39443;BME280;25147;52.142;9.960;2023-04-20T09:43:08;100827.13;;;7.49;70.09
39443;BME280;25147;52.142;9.960;2023-04-20T09:45:37;100942.81;;;8.17;70.16
39443;BME280;25147;52.142;9.960;2023-04-20T09:48:05;101039.50;;;8.79;70.43
39443;BME280;25147;52.142;9.960;2023-04-20T09:50:34;100969.88;;;8.50;70.59
39443;BME280;25147;52.142;9.960;2023-04-20T09:53:02;100873.25;;;8.07;70.92
39443;BME280;25147;52.142;9.960;2023-04-20T09:55:29;100825.44;;;7.97;69.99
39443;BME280;25147;52.142;9.960;2023-04-20T09:57:57;101028.19;;;9.31;67.60
39443;BME280;25147;52.142;9.960;2023-04-20T10:00:25;100864.59;;;8.31;66.90
39443;BME280;25147;52.142;9.960;2023-04-20T10:02:52;101030.81;;;9.26;66.78
39443;BME280;25147;52.142;9.960;2023-04-20T10:05:19;100991.63;;;9.03;66.97
39443;BME280;25147;52.142;9.960;2023-04-20T10:07:58;100931.59;;;8.72;66.89
39443;BME280;25147;52.142;9.960;2023-04-20T10:10:25;100951.63;;;8.84;66.83
39443;BME280;25147;52.142;9.960;2023-04-20T10:12:53;101036.00;;;9.51;66.48
39443;BME280;25147;52.142;9.960;2023-04-20T10:15:21;101036.84;;;9.63;65.48
39443;BME280;25147;52.142;9.960;2023-04-20T10:17:50;101015.94;;;9.59;64.97
39443;BME280;25147;52.142;9.960;2023-04-20T10:20:18;101034.19;;;9.77;64.25
39443;BME280;25147;52.142;9.960;2023-04-20T10:22:45;100862.88;;;8.72;63.06
39443;BME280;25147;52.142;9.960;2023-04-20T10:25:16;100964.63;;;9.21;63.27
39443;BME280;25147;52.142;9.960;2023-04-20T10:27:55;100913.31;;;8.80;64.13
39443;BME280;25147;52.142;9.960;2023-04-20T10:30:22;101029.03;;;9.45;63.74
39443;BME280;25147;52.142;9.960;2023-04-20T10:33:01;100943.78;;;8.79;64.14
39443;BME280;25147;52.142;9.960;2023-04-20T10:35:39;100965.56;;;8.81;64.59
39443;BME280;25147;52.142;9.960;2023-04-20T10:38:06;101063.03;;;9.37;65.37
39443;BME280;25147;52.142;9.960;2023-04-20T10:40:33;100741.13;;;7.63;64.86
39443;BME280;25147;52.142;9.960;2023-04-20T10:43:00;101036.00;;;9.43;65.36
39443;BME280;25147;52.142;9.960;2023-04-20T10:45:32;100891.59;;;8.53;64.50
39443;BME280;25147;52.142;9.960;2023-04-20T10:48:07;100839.38;;;8.13;65.24
39443;BME280;25147;52.142;9.960;2023-04-20T10:50:34;101037.75;;;9.44;65.28
39443;BME280;25147;52.142;9.960;2023-04-20T10:53:02;101038.63;;;9.48;64.50
39443;BME280;25147;52.142;9.960;2023-04-20T10:55:30;100557.03;;;6.70;64.78
39443;BME280;25147;52.142;9.960;2023-04-20T10:57:57;100857.66;;;8.52;63.03
39443;BME280;25147;52.142;9.960;2023-04-20T11:00:25;100795.91;;;7.89;63.52
39443;BME280;25147;52.142;9.960;2023-04-20T11:02:54;100888.09;;;8.68;63.15
39443;BME280;25147;52.142;9.960;2023-04-20T11:05:24;101040.31;;;9.66;63.10
39443;BME280;25147;52.142;9.960;2023-04-20T11:07:51;100975.91;;;9.34;63.60
39443;BME280;25147;52.142;9.960;2023-04-20T11:10:19;100968.13;;;9.24;63.45
39443;BME280;25147;52.142;9.960;2023-04-20T11:12:46;100882.88;;;8.76;63.26
39443;BME280;25147;52.142;9.960;2023-04-20T11:15:13;100919.34;;;9.10;64.22
39443;BME280;25147;52.142;9.960;2023-04-20T11:17:41;100981.13;;;9.51;65.18
39443;BME280;25147;52.142;9.960;2023-04-20T11:20:09;100858.50;;;8.81;65.07
39443;BME280;25147;52.142;9.960;2023-04-20T11:22:38;101020.19;;;9.95;64.94
39443;BME280;25147;52.142;9.960;2023-04-20T11:25:07;101019.31;;;9.99;64.83
39443;BME280;25147;52.142;9.960;2023-04-20T11:27:36;101018.44;;;9.96;64.64
39443;BME280;25147;52.142;9.960;2023-04-20T11:30:04;101021.06;;;9.96;65.65
39443;BME280;25147;52.142;9.960;2023-04-20T11:32:33;101019.28;;;10.01;66.29
39443;BME280;25147;52.142;9.960;2023-04-20T11:35:01;101020.97;;;10.11;64.60
39443;BME280;25147;52.142;9.960;2023-04-20T11:37:29;100647.25;;;8.21;63.01
39443;BME280;25147;52.142;9.960;2023-04-20T11:40:03;100892.13;;;9.74;62.87
39443;BME280;25147;52.142;9.960;2023-04-20T11:42:32;100905.97;;;9.93;62.15
39443;BME280;25147;52.142;9.960;2023-04-20T11:44:59;100996.28;;;10.64;60.68
39443;BME280;25147;52.142;9.960;2023-04-20T11:47:26;100993.63;;;10.66;59.65
39443;BME280;25147;52.142;9.960;2023-04-20T11:49:53;101011.16;;;10.59;59.80
39443;BME280;25147;52.142;9.960;2023-04-20T11:52:20;100995.50;;;10.50;60.00
39443;BME280;25147;52.142;9.960;2023-04-20T11:54:47;101010.41;;;10.36;59.77
39443;BME280;25147;52.142;9.960;2023-04-20T11:57:15;100888.81;;;9.42;59.26
39443;BME280;25147;52.142;9.960;2023-04-20T11:59:41;100953.19;;;9.62;59.29
39443;BME280;25147;52.142;9.960;2023-04-20T12:02:12;101004.50;;;9.91;59.89
39443;BME280;25147;52.142;9.960;2023-04-20T12:04:39;101002.78;;;9.87;60.30
39443;BME280;25147;52.142;9.960;2023-04-20T12:07:06;100908.03;;;9.26;60.83
39443;BME280;25147;52.142;9.960;2023-04-20T12:09:33;100905.41;;;9.21;60.61
39443;BME280;25147;52.142;9.960;2023-04-20T12:12:02;100991.38;;;9.97;60.36
39443;BME280;25147;52.142;9.960;2023-04-20T12:14:33;100692.47;;;8.17;59.20
39443;BME280;25147;52.142;9.960;2023-04-20T12:17:01;100980.19;;;9.73;59.72
39443;BME280;25147;52.142;9.960;2023-04-20T12:19:29;101007.16;;;9.77;60.03
39443;BME280;25147;52.142;9.960;2023-04-20T12:21:56;100998.44;;;9.76;59.43
39443;BME280;25147;52.142;9.960;2023-04-20T12:24:23;100843.69;;;8.79;59.80
39443;BME280;25147;52.142;9.960;2023-04-20T12:26:50;100690.72;;;8.06;59.87
39443;BME280;25147;52.142;9.960;2023-04-20T12:29:17;100969.66;;;9.87;59.76
39443;BME280;25147;52.142;9.960;2023-04-20T12:31:45;100982.66;;;10.01;60.03
39443;BME280;25147;52.142;9.960;2023-04-20T12:34:12;100810.50;;;9.22;58.99
39443;BME280;25147;52.142;9.960;2023-04-20T12:36:38;100952.81;;;10.37;58.91
39443;BME280;25147;52.142;9.960;2023-04-20T12:39:05;100838.91;;;9.81;58.74
39443;BME280;25147;52.142;9.960;2023-04-20T12:41:32;100584.50;;;8.60;57.41
39443;BME280;25147;52.142;9.960;2023-04-20T12:43:59;100808.25;;;10.03;56.06
39443;BME280;25147;52.142;9.960;2023-04-20T12:46:25;100766.59;;;9.78;55.49
39443;BME280;25147;52.142;9.960;2023-04-20T12:48:54;100959.38;;;10.92;55.98
39443;BME280;25147;52.142;9.960;2023-04-20T12:51:20;100949.69;;;11.03;56.68
39443;BME280;25147;52.142;9.960;2023-04-20T12:53:47;100710.94;;;9.67;56.65
39443;BME280;25147;52.142;9.960;2023-04-20T12:56:14;100813.13;;;10.49;56.70